Time;durP1;ratioP1;P1;durP2;ratioP2;P2;SDS_P1;SDS_P2;PMS_P1;PMS_P2;Temp;Humidity;BMP_temperature;BMP_pressure;BME280_temperature;BME280_humidity;BME280_pressure;Samples;Min_cycle;Max_cycle;Signal;HPM_P1;HPM_P2
2023/09/29 00:00:51;;;;;;;15.80;5.15;;;15.60;99.90;;;;;;4991251;28;20042;-72
2023/09/29 00:03:17;;;;;;;18.33;5.60;;;15.70;99.90;;;;;;4990760;28;20104;-72
2023/09/29 00:05:46;;;;;;;14.23;5.90;;;15.70;99.90;;;;;;4991319;28;20441;-72
2023/09/29 00:08:16;;;;;;;14.68;5.32;;;15.70;99.90;;;;;;4989833;28;20383;-72
2023/09/29 00:10:45;;;;;;;14.43;4.93;;;15.60;99.90;;;;;;4973054;28;20451;-72
2023/09/29 00:13:12;;;;;;;17.08;5.70;;;15.60;99.90;;;;;;4989139;28;20516;-72
2023/09/29 00:15:41;;;;;;;18.45;5.60;;;15.60;99.90;;;;;;4991359;28;20051;-72
2023/09/29 00:18:09;;;;;;;14.70;5.35;;;15.50;99.90;;;;;;4988593;28;20720;-71
2023/09/29 00:20:35;;;;;;;14.02;5.25;;;15.60;99.90;;;;;;4988146;28;20458;-72
2023/09/29 00:23:02;;;;;;;14.57;4.90;;;15.60;99.90;;;;;;4973235;28;20082;-72
2023/09/29 00:25:28;;;;;;;14.95;5.30;;;15.70;99.90;;;;;;4974991;28;20051;-72
2023/09/29 00:27:55;;;;;;;15.52;5.30;;;15.60;99.90;;;;;;4975123;28;20483;-71
2023/09/29 00:30:21;;;;;;;14.13;5.22;;;15.60;99.90;;;;;;4974570;28;20054;-71
2023/09/29 00:32:49;;;;;;;15.65;5.70;;;15.70;99.90;;;;;;4974765;28;20145;-72
2023/09/29 00:35:18;;;;;;;16.33;5.30;;;15.70;99.90;;;;;;4976584;28;20082;-72
2023/09/29 00:37:44;;;;;;;13.80;5.40;;;15.70;99.90;;;;;;4975253;28;20122;-72
2023/09/29 00:40:12;;;;;;;14.45;5.20;;;15.60;99.90;;;;;;4992410;28;20065;-72
2023/09/29 00:42:39;;;;;;;12.55;5.05;;;15.60;99.90;;;;;;4994211;28;20053;-72
2023/09/29 00:45:09;;;;;;;14.35;5.40;;;15.50;99.90;;;;;;4993491;28;20038;-72
2023/09/29 00:47:39;;;;;;;16.25;4.93;;;15.70;99.90;;;;;;4994554;28;20058;-72
2023/09/29 00:50:07;;;;;;;13.48;4.63;;;15.50;99.90;;;;;;4995559;28;20105;-72
2023/09/29 00:52:34;;;;;;;13.80;5.20;;;15.50;99.90;;;;;;4994045;28;20054;-72
2023/09/29 00:54:59;;;;;;;12.70;4.90;;;15.60;99.90;;;;;;4993625;28;20050;-72
2023/09/29 00:57:27;;;;;;;18.45;4.93;;;15.60;99.90;;;;;;4994129;28;20042;-72
2023/09/29 00:59:53;;;;;;;16.25;5.03;;;15.60;99.90;;;;;;4994692;28;20054;-72
2023/09/29 01:02:20;;;;;;;15.38;5.20;;;15.60;99.90;;;;;;4994222;28;20414;-72
2023/09/29 01:04:46;;;;;;;16.08;4.97;;;15.50;99.90;;;;;;5009729;28;20054;-72
2023/09/29 01:07:13;;;;;;;13.10;5.32;;;15.50;99.90;;;;;;4981661;28;20073;-72
2023/09/29 01:09:38;;;;;;;15.55;4.70;;;15.50;99.90;;;;;;4976081;28;20054;-72
2023/09/29 01:12:05;;;;;;;11.68;4.70;;;15.50;99.90;;;;;;4974053;28;20134;-72
2023/09/29 01:14:31;;;;;;;15.63;5.07;;;15.40;99.90;;;;;;4989746;28;20050;-72
2023/09/29 01:16:57;;;;;;;15.93;4.85;;;15.50;99.90;;;;;;4994160;28;20053;-72
2023/09/29 01:19:22;;;;;;;17.17;5.13;;;15.50;99.90;;;;;;4993825;28;20081;-73
2023/09/29 01:21:48;;;;;;;12.38;4.80;;;15.50;99.90;;;;;;4993047;28;20137;-72
2023/09/29 01:24:14;;;;;;;18.63;5.45;;;15.50;99.90;;;;;;4985712;28;20042;-72
2023/09/29 01:26:44;;;;;;;15.70;4.68;;;15.50;99.90;;;;;;4990299;28;20050;-72
2023/09/29 01:29:15;;;;;;;15.88;4.20;;;15.50;99.90;;;;;;4975782;28;20082;-72
2023/09/29 01:31:41;;;;;;;12.38;4.63;;;15.50;99.90;;;;;;4973938;28;20049;-72
2023/09/29 01:34:07;;;;;;;14.38;4.65;;;15.50;99.90;;;;;;4983199;28;20062;-72
2023/09/29 01:36:34;;;;;;;13.10;4.30;;;15.50;99.90;;;;;;4993175;28;20473;-72
2023/09/29 01:38:59;;;;;;;13.68;4.97;;;15.50;99.90;;;;;;4993213;28;20133;-72
2023/09/29 01:41:25;;;;;;;14.23;5.85;;;15.50;99.90;;;;;;4992820;28;20117;-72
2023/09/29 01:43:52;;;;;;;15.35;4.63;;;15.50;99.90;;;;;;4993285;28;20101;-72
2023/09/29 01:46:18;;;;;;;11.27;4.40;;;15.50;99.90;;;;;;4993345;28;20434;-72
2023/09/29 01:48:43;;;;;;;11.80;4.47;;;15.60;99.90;;;;;;4992081;28;20101;-72
2023/09/29 01:51:11;;;;;;;16.70;5.28;;;15.60;99.90;;;;;;4993351;28;20050;-72
2023/09/29 01:53:37;;;;;;;17.80;4.63;;;15.70;99.90;;;;;;4992902;28;20046;-72
2023/09/29 01:56:02;;;;;;;13.40;4.65;;;15.70;99.90;;;;;;4977198;28;20537;-72
2023/09/29 01:58:28;;;;;;;13.23;4.55;;;15.70;99.90;;;;;;4973804;28;20049;-72
2023/09/29 02:00:54;;;;;;;16.52;4.60;;;15.70;99.90;;;;;;4989730;28;20039;-72
2023/09/29 02:03:20;;;;;;;11.27;4.32;;;15.60;99.90;;;;;;4989373;28;20541;-72
2023/09/29 02:05:46;;;;;;;13.10;4.43;;;15.60;99.90;;;;;;4989727;28;20046;-72
2023/09/29 02:08:14;;;;;;;13.23;4.75;;;15.70;99.90;;;;;;4973367;28;20185;-72
2023/09/29 02:10:40;;;;;;;16.48;5.30;;;15.60;99.90;;;;;;5001887;28;20125;-72
2023/09/29 02:13:07;;;;;;;11.18;4.40;;;15.70;99.90;;;;;;4992699;28;20137;-72
2023/09/29 02:15:35;;;;;;;12.63;4.28;;;15.70;99.90;;;;;;4992741;28;20094;-72
2023/09/29 02:18:04;;;;;;;13.82;4.70;;;15.80;99.90;;;;;;4991717;28;20053;-72
2023/09/29 02:20:30;;;;;;;9.93;3.95;;;15.70;99.90;;;;;;4992476;28;20042;-72
2023/09/29 02:23:01;;;;;;;11.38;4.13;;;15.80;99.90;;;;;;4992239;28;20046;-72
2023/09/29 02:25:30;;;;;;;11.95;4.68;;;15.90;99.90;;;;;;4981219;28;20050;-72
2023/09/29 02:27:57;;;;;;;13.18;4.43;;;15.80;99.90;;;;;;4988834;28;20046;-72
2023/09/29 02:30:24;;;;;;;13.80;4.85;;;15.70;99.90;;;;;;4972943;28;20059;-72
2023/09/29 02:32:53;;;;;;;13.25;4.20;;;15.80;99.90;;;;;;4972529;28;20104;-72
2023/09/29 02:35:19;;;;;;;17.27;5.03;;;15.80;99.90;;;;;;4982000;28;20057;-72
2023/09/29 02:37:46;;;;;;;12.00;4.40;;;15.80;99.90;;;;;;4984668;28;20042;-72
2023/09/29 02:40:12;;;;;;;18.48;5.00;;;15.90;99.90;;;;;;4990742;28;20066;-72
2023/09/29 02:42:39;;;;;;;15.73;4.60;;;15.90;99.90;;;;;;4992158;28;20054;-72
2023/09/29 02:45:06;;;;;;;15.52;4.90;;;15.80;99.90;;;;;;4991612;28;20479;-72
2023/09/29 02:47:32;;;;;;;14.32;4.78;;;15.80;99.90;;;;;;4973834;28;20053;-72
2023/09/29 02:49:58;;;;;;;16.92;4.28;;;15.80;99.90;;;;;;4973823;28;20046;-72
2023/09/29 02:52:26;;;;;;;16.58;4.95;;;15.80;99.90;;;;;;4978977;28;20042;-72
2023/09/29 02:54:54;;;;;;;19.45;4.70;;;15.80;99.90;;;;;;4991870;28;20046;-72
2023/09/29 02:57:22;;;;;;;13.57;4.43;;;15.80;99.90;;;;;;4992219;28;20049;-72
2023/09/29 02:59:48;;;;;;;16.20;4.80;;;15.70;99.90;;;;;;4991623;28;20101;-72
2023/09/29 03:02:14;;;;;;;17.20;4.72;;;15.70;99.90;;;;;;4991886;28;20042;-72
2023/09/29 03:04:40;;;;;;;16.70;4.10;;;15.70;99.90;;;;;;4991584;28;20038;-71
2023/09/29 03:07:06;;;;;;;13.50;4.38;;;15.80;99.90;;;;;;4991596;28;20049;-72
2023/09/29 03:09:33;;;;;;;10.90;4.05;;;15.90;99.90;;;;;;4992146;28;20046;-72
2023/09/29 03:12:03;;;;;;;12.13;4.03;;;15.90;99.90;;;;;;4981178;28;20046;-72
2023/09/29 03:14:29;;;;;;;10.63;4.10;;;15.90;99.90;;;;;;4978723;28;20394;-72
2023/09/29 03:16:54;;;;;;;16.55;4.90;;;15.90;99.90;;;;;;4991857;28;20478;-72
2023/09/29 03:19:21;;;;;;;13.35;3.92;;;15.90;99.90;;;;;;4991758;28;20046;-72
2023/09/29 03:21:48;;;;;;;15.35;4.60;;;16.00;99.90;;;;;;4974850;28;20053;-72
2023/09/29 03:24:14;;;;;;;12.10;4.15;;;15.90;99.90;;;;;;4988640;28;20053;-72
2023/09/29 03:26:39;;;;;;;14.95;4.25;;;16.00;99.90;;;;;;4972207;28;20039;-72
2023/09/29 03:29:05;;;;;;;13.38;4.43;;;16.00;99.90;;;;;;4987608;28;20086;-72
2023/09/29 03:31:31;;;;;;;13.43;4.18;;;16.00;99.90;;;;;;4988215;28;20133;-72
2023/09/29 03:33:56;;;;;;;13.75;4.35;;;16.00;99.90;;;;;;4971478;28;20055;-72
2023/09/29 03:36:22;;;;;;;11.85;3.78;;;16.00;99.90;;;;;;4972750;28;20097;-72
2023/09/29 03:38:48;;;;;;;12.27;4.80;;;16.10;99.90;;;;;;4987989;28;20525;-72
2023/09/29 03:41:14;;;;;;;13.68;4.15;;;16.00;99.90;;;;;;4998562;28;20047;-72
2023/09/29 03:43:40;;;;;;;19.95;3.78;;;16.00;99.90;;;;;;4991688;28;20050;-72
2023/09/29 03:46:06;;;;;;;10.43;4.53;;;16.10;99.90;;;;;;4991013;28;20051;-72
2023/09/29 03:48:32;;;;;;;10.70;4.45;;;16.20;99.90;;;;;;4992349;28;20042;-72
2023/09/29 03:51:02;;;;;;;14.57;3.53;;;16.10;99.90;;;;;;4990742;28;20100;-72
2023/09/29 03:53:29;;;;;;;10.10;3.55;;;16.20;99.90;;;;;;4992456;28;20097;-73
2023/09/29 03:55:56;;;;;;;15.80;4.00;;;16.20;99.90;;;;;;4988374;28;20043;-73
2023/09/29 03:58:21;;;;;;;9.93;3.50;;;16.20;99.90;;;;;;4993928;28;20437;-74
2023/09/29 04:00:47;;;;;;;13.15;3.70;;;16.30;99.90;;;;;;4994344;28;20050;-73
2023/09/29 04:03:13;;;;;;;11.70;3.83;;;16.20;99.90;;;;;;4994304;28;20058;-71
2023/09/29 04:05:38;;;;;;;14.50;3.58;;;16.30;99.90;;;;;;4995277;28;20054;-74
2023/09/29 04:08:04;;;;;;;14.05;3.80;;;16.30;99.90;;;;;;4994410;28;20566;-73
2023/09/29 04:10:30;;;;;;;13.48;4.60;;;16.30;99.90;;;;;;4991127;28;20074;-73
2023/09/29 04:12:56;;;;;;;12.13;4.30;;;16.30;99.90;;;;;;4995655;28;20080;-73
2023/09/29 04:15:23;;;;;;;15.07;4.22;;;16.30;99.90;;;;;;4993905;28;20078;-73
2023/09/29 04:17:49;;;;;;;11.82;4.60;;;16.30;99.90;;;;;;4975997;28;20502;-72
2023/09/29 04:20:15;;;;;;;11.27;4.68;;;16.30;99.90;;;;;;4976697;28;20070;-73
2023/09/29 04:22:41;;;;;;;13.60;4.75;;;16.30;99.90;;;;;;4991731;28;20047;-73
2023/09/29 04:25:11;;;;;;;15.20;4.20;;;16.30;99.90;;;;;;4991184;28;20061;-73
2023/09/29 04:27:38;;;;;;;13.40;4.35;;;16.30;99.90;;;;;;4976331;28;20043;-73
2023/09/29 04:30:05;;;;;;;15.57;4.57;;;16.40;99.90;;;;;;4974148;28;20046;-73
2023/09/29 04:32:31;;;;;;;13.60;4.28;;;16.30;99.90;;;;;;4973857;28;20046;-73
2023/09/29 04:34:56;;;;;;;14.23;3.97;;;16.40;99.90;;;;;;4973434;28;20050;-73
2023/09/29 04:37:22;;;;;;;15.18;4.00;;;16.30;99.90;;;;;;4990037;28;20081;-73
2023/09/29 04:39:48;;;;;;;13.13;4.43;;;16.30;99.90;;;;;;4989792;28;20122;-72
2023/09/29 04:42:14;;;;;;;13.60;4.35;;;16.40;99.90;;;;;;4974482;28;20046;-73
2023/09/29 04:44:40;;;;;;;14.60;4.30;;;16.20;99.90;;;;;;4989970;28;20047;-72
2023/09/29 04:47:06;;;;;;;15.57;4.47;;;16.20;99.90;;;;;;4973531;28;20302;-72
2023/09/29 04:49:32;;;;;;;12.80;4.10;;;16.20;99.90;;;;;;4998982;28;20422;-72
2023/09/29 04:51:58;;;;;;;15.65;3.88;;;16.20;99.90;;;;;;4990206;28;20057;-73
2023/09/29 04:54:26;;;;;;;13.45;4.07;;;16.10;99.90;;;;;;4992767;28;20458;-72
2023/09/29 04:56:52;;;;;;;18.02;4.90;;;17.30;99.90;;;;;;4992402;28;20038;-72
2023/09/29 04:59:18;;;;;;;15.32;4.57;;;16.10;99.90;;;;;;4991672;28;20532;-73
2023/09/29 05:01:43;;;;;;;10.95;4.20;;;16.10;99.90;;;;;;4992809;28;20050;-73
2023/09/29 05:04:09;;;;;;;11.98;4.22;;;16.10;99.90;;;;;;4992016;28;20426;-72
2023/09/29 05:06:35;;;;;;;9.98;3.67;;;16.10;99.90;;;;;;4982373;28;20449;-73
2023/09/29 05:09:02;;;;;;;16.00;4.20;;;16.10;99.90;;;;;;4990726;28;20145;-70
2023/09/29 05:11:28;;;;;;;11.90;4.22;;;16.10;99.90;;;;;;4992330;28;20054;-71
2023/09/29 05:13:57;;;;;;;13.18;3.85;;;16.10;99.90;;;;;;4991850;28;20053;-77
2023/09/29 05:16:22;;;;;;;11.15;4.18;;;16.10;99.90;;;;;;4992257;28;20133;-76
2023/09/29 05:18:49;;;;;;;15.23;4.22;;;16.10;99.90;;;;;;4991720;28;20129;-71
2023/09/29 05:21:15;;;;;;;12.90;4.00;;;16.10;99.90;;;;;;4991495;28;20046;-78
2023/09/29 05:23:44;;;;;;;12.55;4.30;;;16.10;99.90;;;;;;4992556;28;20038;-79
2023/09/29 05:26:10;;;;;;;15.00;4.93;;;16.00;99.90;;;;;;4992409;28;20470;-80
2023/09/29 05:28:37;;;;;;;14.55;4.38;;;16.10;99.90;;;;;;4988524;28;20126;-77
2023/09/29 05:31:03;;;;;;;11.00;4.18;;;16.10;99.90;;;;;;4951252;28;1123377;-76
2023/09/29 05:33:30;;;;;;;14.80;4.45;;;16.40;99.90;;;;;;5005793;28;20058;-79
2023/09/29 05:35:56;;;;;;;12.90;4.25;;;16.10;99.90;;;;;;4985773;28;20077;-78
2023/09/29 05:38:22;;;;;;;12.10;4.22;;;16.20;99.90;;;;;;4988288;28;20054;-77
2023/09/29 05:40:50;;;;;;;14.60;4.07;;;16.30;99.90;;;;;;4989360;28;20409;-74
2023/09/29 05:43:18;;;;;;;11.43;3.88;;;16.30;99.90;;;;;;4992717;28;20050;-81
2023/09/29 05:45:48;;;;;;;9.90;4.45;;;16.30;99.90;;;;;;4991762;28;20046;-77
2023/09/29 05:48:16;;;;;;;11.45;4.30;;;16.30;99.90;;;;;;4990676;28;20093;-79
2023/09/29 05:50:42;;;;;;;14.43;4.00;;;16.20;99.90;;;;;;4986613;28;20062;-77
2023/09/29 05:53:08;;;;;;;12.57;3.92;;;16.20;99.90;;;;;;4993199;28;20133;-71
2023/09/29 05:55:34;;;;;;;15.75;4.88;;;16.40;99.90;;;;;;4986860;28;20049;-77
2023/09/29 05:58:01;;;;;;;9.52;3.72;;;16.30;99.90;;;;;;4989923;28;20042;-72
2023/09/29 06:00:26;;;;;;;15.93;3.85;;;16.30;99.90;;;;;;4991786;28;20046;-71
2023/09/29 06:02:53;;;;;;;10.68;3.95;;;16.30;99.90;;;;;;4991089;28;20450;-72
2023/09/29 06:05:19;;;;;;;12.98;4.38;;;16.30;99.90;;;;;;4989640;28;20058;-72
2023/09/29 06:07:45;;;;;;;11.68;3.88;;;16.30;99.90;;;;;;4990299;28;20406;-72
2023/09/29 06:10:11;;;;;;;14.30;4.70;;;16.30;99.90;;;;;;4990257;28;20046;-72
2023/09/29 06:12:37;;;;;;;13.55;4.28;;;16.50;99.90;;;;;;4992931;28;20046;-76
2023/09/29 06:15:07;;;;;;;18.00;4.28;;;16.50;99.90;;;;;;4992339;28;20042;-74
2023/09/29 06:17:33;;;;;;;12.75;3.90;;;16.50;99.90;;;;;;4991723;28;20038;-73
2023/09/29 06:19:58;;;;;;;9.07;4.15;;;16.40;99.90;;;;;;4989913;23;20054;-73
2023/09/29 06:22:25;;;;;;;14.23;4.18;;;16.40;99.90;;;;;;4969289;28;20100;-73
2023/09/29 06:24:50;;;;;;;12.63;3.88;;;16.40;99.90;;;;;;4973972;28;20096;-73
2023/09/29 06:27:16;;;;;;;13.82;4.63;;;16.60;99.90;;;;;;4974011;28;20046;-73
2023/09/29 06:29:49;;;;;;;13.88;4.18;;;16.60;99.90;;;;;;4958621;28;20042;-73
2023/09/29 06:32:18;;;;;;;14.60;4.60;;;16.70;99.90;;;;;;4955181;28;20129;-73
2023/09/29 06:34:47;;;;;;;11.30;3.85;;;16.60;99.90;;;;;;4954602;28;20055;-73
2023/09/29 06:37:13;;;;;;;12.75;4.43;;;16.70;99.90;;;;;;4954571;28;20075;-73
2023/09/29 06:39:39;;;;;;;10.75;3.83;;;16.70;99.90;;;;;;4955919;28;20050;-73
2023/09/29 06:42:05;;;;;;;14.55;4.25;;;16.80;99.90;;;;;;4973372;28;20043;-73
2023/09/29 06:44:32;;;;;;;14.57;4.13;;;16.80;99.90;;;;;;4974534;28;20289;-73
2023/09/29 06:47:00;;;;;;;11.65;4.10;;;16.80;99.90;;;;;;4973722;28;20467;-73
2023/09/29 06:49:26;;;;;;;11.65;3.95;;;16.70;99.90;;;;;;4956397;28;20039;-73
2023/09/29 06:51:51;;;;;;;9.65;3.85;;;16.80;99.90;;;;;;4956172;28;20094;-73
2023/09/29 06:54:17;;;;;;;12.95;4.30;;;16.80;99.90;;;;;;4957102;28;20054;-73
2023/09/29 06:56:43;;;;;;;10.75;4.47;;;16.80;99.90;;;;;;4973864;28;20034;-73
2023/09/29 06:59:08;;;;;;;13.18;4.53;;;16.90;99.90;;;;;;4974686;28;20055;-73
2023/09/29 07:01:36;;;;;;;11.65;3.83;;;16.90;99.90;;;;;;4976115;28;20453;-73
2023/09/29 07:04:01;;;;;;;13.38;4.10;;;17.00;99.90;;;;;;4975416;28;20046;-73
2023/09/29 07:06:27;;;;;;;12.40;4.00;;;17.10;99.90;;;;;;4975280;28;20540;-74
2023/09/29 07:08:55;;;;;;;11.27;3.38;;;17.10;99.90;;;;;;4975683;28;20046;-73
2023/09/29 07:11:21;;;;;;;10.63;3.85;;;17.20;99.90;;;;;;4975318;28;20042;-74
2023/09/29 07:13:47;;;;;;;10.65;3.95;;;17.30;99.90;;;;;;4975801;28;20397;-74
2023/09/29 07:16:13;;;;;;;11.48;4.00;;;17.40;99.90;;;;;;4976056;28;20489;-73
2023/09/29 07:18:40;;;;;;;10.75;4.00;;;17.50;99.90;;;;;;4960341;28;20069;-74
2023/09/29 07:21:06;;;;;;;9.57;3.88;;;17.60;99.90;;;;;;4974505;28;20830;-73
2023/09/29 07:23:33;;;;;;;11.13;4.00;;;17.60;99.90;;;;;;4975517;28;20050;-74
2023/09/29 07:25:59;;;;;;;8.77;3.85;;;17.70;99.90;;;;;;4960251;28;20058;-74
2023/09/29 07:28:25;;;;;;;6.78;3.10;;;17.80;99.90;;;;;;4956319;28;20407;-74
2023/09/29 07:30:50;;;;;;;7.22;3.58;;;17.80;99.90;;;;;;4955759;28;20072;-74
2023/09/29 07:33:16;;;;;;;7.95;3.60;;;17.90;99.90;;;;;;4970615;28;20411;-74
2023/09/29 07:35:44;;;;;;;6.47;3.40;;;17.90;99.90;;;;;;4979478;28;20559;-73
2023/09/29 07:38:10;;;;;;;8.38;3.55;;;17.90;99.90;;;;;;4978939;28;20046;-74
2023/09/29 07:40:36;;;;;;;9.38;3.95;;;17.90;99.90;;;;;;4979202;28;20045;-73
2023/09/29 07:43:02;;;;;;;9.68;3.83;;;17.90;99.90;;;;;;4975535;28;20043;-73
2023/09/29 07:45:28;;;;;;;8.27;3.50;;;17.90;99.90;;;;;;4963390;28;20074;-73
2023/09/29 07:47:54;;;;;;;9.10;3.72;;;18.10;99.90;;;;;;4975455;28;20089;-73
2023/09/29 07:50:20;;;;;;;10.63;3.70;;;18.20;99.90;;;;;;4979644;28;20054;-73
2023/09/29 07:52:45;;;;;;;8.07;3.60;;;18.20;99.90;;;;;;4978470;28;20065;-73
2023/09/29 07:55:12;;;;;;;8.80;4.03;;;18.30;99.90;;;;;;4976878;28;20050;-73
2023/09/29 07:57:40;;;;;;;10.93;3.42;;;18.40;99.90;;;;;;4979107;28;20117;-73
2023/09/29 08:00:10;;;;;;;11.27;4.35;;;18.40;99.90;;;;;;4978763;28;20423;-72
2023/09/29 08:02:35;;;;;;;9.20;3.67;;;18.50;99.90;;;;;;4978216;28;20058;-74
2023/09/29 08:05:02;;;;;;;9.75;4.00;;;18.40;99.90;;;;;;4977997;28;20050;-73
2023/09/29 08:07:28;;;;;;;12.52;3.80;;;18.40;99.90;;;;;;4958515;28;20042;-72
2023/09/29 08:09:53;;;;;;;10.73;3.80;;;18.50;99.90;;;;;;4958368;28;20054;-72
2023/09/29 08:12:20;;;;;;;7.78;3.40;;;18.50;99.90;;;;;;4959654;28;20379;-72
2023/09/29 08:14:45;;;;;;;9.10;3.70;;;18.60;99.90;;;;;;4959138;28;20479;-72
2023/09/29 08:17:11;;;;;;;11.32;3.47;;;18.70;99.90;;;;;;4976507;28;21212;-72
2023/09/29 08:19:37;;;;;;;8.07;3.50;;;18.90;99.90;;;;;;4959609;28;20076;-72
2023/09/29 08:22:03;;;;;;;9.93;3.50;;;19.10;99.90;;;;;;4976488;28;20043;-72
2023/09/29 08:24:34;;;;;;;9.48;3.63;;;19.40;99.90;;;;;;4976474;28;20394;-72
2023/09/29 08:27:00;;;;;;;7.88;3.03;;;20.00;99.90;;;;;;4969729;28;20057;-72
2023/09/29 08:29:26;;;;;;;8.70;3.00;;;19.50;99.90;;;;;;4975804;28;20054;-72
2023/09/29 08:31:53;;;;;;;7.93;3.25;;;19.70;99.90;;;;;;4993373;28;20056;-72
2023/09/29 08:34:19;;;;;;;7.35;3.10;;;19.90;99.90;;;;;;4993695;28;20498;-72
2023/09/29 08:36:45;;;;;;;8.32;3.10;;;20.10;99.90;;;;;;4976194;28;20050;-72
2023/09/29 08:39:11;;;;;;;7.05;3.17;;;20.40;99.90;;;;;;4994174;28;20053;-73
2023/09/29 08:41:53;;;;;;;5.93;3.00;;;20.80;99.90;;;;;;4977660;28;20053;-73
2023/09/29 08:44:22;;;;;;;8.20;3.58;;;21.20;99.90;;;;;;4977111;28;20665;-72
2023/09/29 08:46:49;;;;;;;5.57;2.92;;;21.40;99.90;;;;;;4995797;28;20035;-72
2023/09/29 08:49:19;;;;;;;7.28;3.28;;;21.40;99.90;;;;;;4978114;28;20097;-73
2023/09/29 08:51:46;;;;;;;10.45;3.40;;;21.40;99.90;;;;;;4995187;28;20039;-72
2023/09/29 08:54:13;;;;;;;7.20;2.90;;;21.30;99.90;;;;;;4995734;28;20050;-72
2023/09/29 08:56:42;;;;;;;8.80;2.97;;;21.60;99.90;;;;;;4978566;28;20046;-73
2023/09/29 08:59:08;;;;;;;7.13;3.10;;;21.80;99.90;;;;;;4977334;28;20567;-72
2023/09/29 09:01:33;;;;;;;8.73;3.15;;;22.20;99.90;;;;;;4972120;28;20073;-73
2023/09/29 09:03:59;;;;;;;8.32;2.97;;;22.50;99.90;;;;;;4958483;28;20047;-73
2023/09/29 09:06:26;;;;;;;8.63;3.25;;;22.50;99.90;;;;;;4975861;28;20049;-73
2023/09/29 09:08:53;;;;;;;6.78;3.05;;;22.20;99.90;;;;;;4957950;28;20061;-73
2023/09/29 09:11:19;;;;;;;5.82;3.20;;;22.40;99.90;;;;;;4961936;28;20042;-73
2023/09/29 09:14:04;;;;;;;6.05;3.17;;;22.90;99.90;;;;;;4977696;28;20050;-74
2023/09/29 09:16:36;;;;;;;8.68;2.97;;;23.20;99.90;;;;;;4977868;28;20101;-72
2023/09/29 09:19:09;;;;;;;11.10;3.30;;;23.30;99.90;;;;;;4976833;28;20101;-78
2023/09/29 09:21:35;;;;;;;9.30;3.38;;;23.30;99.90;;;;;;4977386;28;20046;-77
2023/09/29 09:24:00;;;;;;;8.85;3.08;;;23.20;99.90;;;;;;4976965;28;20065;-77
2023/09/29 09:26:28;;;;;;;6.72;3.33;;;23.30;99.90;;;;;;4975449;28;20081;-75
2023/09/29 09:28:54;;;;;;;7.63;3.17;;;23.30;99.90;;;;;;4994974;28;20088;-73
2023/09/29 09:31:20;;;;;;;6.60;3.00;;;23.60;99.90;;;;;;4977449;28;20437;-76
2023/09/29 09:33:53;;;;;;;7.28;2.95;;;23.50;99.90;;;;;;4977049;28;20057;-77
2023/09/29 09:36:19;;;;;;;8.98;3.47;;;23.10;99.90;;;;;;4975418;28;20055;-77
2023/09/29 09:38:47;;;;;;;11.10;3.78;;;22.40;99.90;;;;;;4977287;28;20054;-77
2023/09/29 09:41:15;;;;;;;8.88;3.33;;;21.90;99.90;;;;;;4982147;23;20055;-75
2023/09/29 09:43:41;;;;;;;9.27;4.18;;;21.60;99.90;;;;;;4938559;29;20134;-77
2023/09/29 09:46:12;;;;;;;8.70;3.40;;;21.30;99.90;;;;;;4938730;29;20504;-77
2023/09/29 09:49:09;;;;;;;7.82;3.38;;;21.10;99.90;;;;;;4938001;29;20043;-77
2023/09/29 09:51:36;;;;;;;9.43;3.90;;;20.70;99.90;;;;;;4951720;28;20070;-77
2023/09/29 09:54:03;;;;;;;8.93;3.65;;;20.70;99.90;;;;;;4956856;28;20085;-76
2023/09/29 09:56:51;;;;;;;9.88;3.88;;;20.70;99.90;;;;;;4956771;28;20047;-79
2023/09/29 09:59:18;;;;;;;9.18;4.00;;;20.50;99.90;;;;;;4957975;28;20086;-79
2023/09/29 10:01:45;;;;;;;10.20;3.75;;;20.60;99.90;;;;;;4956500;28;20137;-76
2023/09/29 10:04:12;;;;;;;10.40;3.97;;;20.50;99.90;;;;;;4969641;28;20506;-78
2023/09/29 10:06:45;;;;;;;11.73;3.67;;;20.50;99.90;;;;;;4979793;28;20039;-73
2023/09/29 10:09:11;;;;;;;7.53;3.92;;;20.50;99.90;;;;;;4959822;28;20078;-73
2023/09/29 10:11:40;;;;;;;11.05;3.75;;;20.70;99.90;;;;;;4956285;28;20038;-76
2023/09/29 10:14:08;;;;;;;9.82;3.60;;;20.70;99.90;;;;;;4955076;28;20057;-75
2023/09/29 10:16:35;;;;;;;9.32;4.03;;;20.90;99.90;;;;;;4949120;29;20129;-78
2023/09/29 10:19:06;;;;;;;9.50;3.85;;;20.90;99.90;;;;;;4949779;28;20161;-76
2023/09/29 10:21:43;;;;;;;9.27;3.15;;;21.00;99.90;;;;;;4957646;28;20047;-75
2023/09/29 10:24:11;;;;;;;9.07;3.53;;;21.00;99.90;;;;;;4972444;28;20070;-79
2023/09/29 10:26:49;;;;;;;11.52;3.67;;;21.20;99.90;;;;;;4972521;28;20043;-79
2023/09/29 10:29:25;;;;;;;6.72;3.60;;;21.40;99.90;;;;;;4973925;28;20427;-79
2023/09/29 10:31:53;;;;;;;7.10;4.10;;;21.30;99.90;;;;;;4974178;28;20083;-79
2023/09/29 10:34:22;;;;;;;9.02;3.67;;;21.20;99.90;;;;;;4956912;28;20094;-79
2023/09/29 10:36:56;;;;;;;8.50;3.90;;;21.20;99.90;;;;;;4956259;28;20104;-78
2023/09/29 10:39:26;;;;;;;7.88;4.18;;;21.00;99.90;;;;;;4955702;28;20521;-78
2023/09/29 10:42:15;;;;;;;6.97;3.78;;;20.80;99.90;;;;;;4955913;28;20091;-76
2023/09/29 10:44:55;;;;;;;6.90;3.10;;;20.70;99.90;;;;;;4956731;28;20055;-77
2023/09/29 10:47:31;;;;;;;4.13;2.00;;;20.40;99.90;;;;;;4968939;28;20402;-75
2023/09/29 10:50:00;;;;;;;;;;;20.00;99.90;;;;;;4982591;28;20050;-75
2023/09/29 10:52:29;;;;;;;3.42;1.30;;;19.80;99.90;;;;;;4975199;28;20357;-72
2023/09/29 10:54:58;;;;;;;3.63;1.45;;;19.60;99.90;;;;;;4956266;28;20043;-78
2023/09/29 10:57:28;;;;;;;3.47;1.20;;;19.40;99.90;;;;;;4956409;28;20046;-73
2023/09/29 10:59:59;;;;;;;4.72;1.35;;;19.20;99.90;;;;;;4973897;28;20437;-73
2023/09/29 11:02:31;;;;;;;4.93;1.70;;;19.10;99.90;;;;;;4940647;29;20051;-74
2023/09/29 11:04:59;;;;;;;3.97;1.50;;;18.90;99.90;;;;;;4936724;29;20047;-76
2023/09/29 11:07:29;;;;;;;5.38;1.30;;;18.90;99.90;;;;;;4937625;29;20051;-76
2023/09/29 11:09:56;;;;;;;4.78;1.63;;;18.80;99.90;;;;;;4936697;29;20051;-76
2023/09/29 11:12:26;;;;;;;5.43;1.90;;;18.80;99.90;;;;;;4937953;29;20058;-75
2023/09/29 11:15:07;;;;;;;4.30;1.63;;;18.80;99.90;;;;;;4954042;28;20086;-74
2023/09/29 11:17:46;;;;;;;6.75;2.03;;;18.90;99.90;;;;;;4937270;29;20051;-75
2023/09/29 11:20:26;;;;;;;5.57;1.50;;;18.80;99.90;;;;;;4954089;29;20095;-76
2023/09/29 11:23:07;;;;;;;6.32;1.63;;;18.80;99.90;;;;;;4937946;29;20058;-75
2023/09/29 11:25:54;;;;;;;4.18;1.67;;;18.70;99.90;;;;;;4957378;28;20566;-75
2023/09/29 11:28:20;;;;;;;5.22;1.75;;;18.60;99.90;;;;;;4962497;28;20126;-73
2023/09/29 11:30:47;;;;;;;5.38;1.60;;;18.50;99.90;;;;;;4955194;28;20046;-72
2023/09/29 11:33:14;;;;;;;4.43;1.70;;;18.40;99.90;;;;;;4955789;28;20071;-72
2023/09/29 11:35:45;;;;;;;5.18;1.52;;;18.30;99.90;;;;;;4956219;28;20059;-72
2023/09/29 11:38:16;;;;;;;4.05;1.40;;;18.10;99.90;;;;;;4953536;28;20082;-73
2023/09/29 11:40:43;;;;;;;5.70;1.33;;;18.10;99.90;;;;;;4955430;28;20059;-71
2023/09/29 11:43:10;;;;;;;5.40;1.30;;;18.10;99.90;;;;;;4955801;28;20042;-72
2023/09/29 11:45:36;;;;;;;4.07;1.00;;;18.00;99.90;;;;;;4956259;28;20094;-72
2023/09/29 11:48:01;;;;;;;4.78;1.15;;;17.90;99.90;;;;;;4955514;28;20046;-72
2023/09/29 11:50:28;;;;;;;6.72;1.10;;;17.80;99.90;;;;;;4959216;28;20502;-73
2023/09/29 11:52:54;;;;;;;3.50;1.00;;;17.70;99.90;;;;;;4963706;28;20043;-71
2023/09/29 11:55:20;;;;;;;4.72;1.00;;;17.70;99.90;;;;;;4973324;28;20103;-71
2023/09/29 11:57:45;;;;;;;6.13;1.20;;;17.70;99.90;;;;;;4975004;28;20038;-72
2023/09/29 12:00:14;;;;;;;3.55;1.10;;;17.60;99.90;;;;;;4974538;28;20046;-72
2023/09/29 12:02:40;;;;;;;5.80;0.90;;;17.60;99.90;;;;;;4956684;28;20396;-71
2023/09/29 12:05:11;;;;;;;6.45;1.25;;;17.60;99.90;;;;;;4949256;28;20050;-71
2023/09/29 12:07:36;;;;;;;4.25;1.50;;;17.50;99.90;;;;;;4974790;28;20070;-74
2023/09/29 12:10:02;;;;;;;4.40;1.25;;;17.50;99.90;;;;;;4963401;28;20090;-73
2023/09/29 12:12:28;;;;;;;3.17;1.00;;;17.60;99.90;;;;;;4955289;28;20078;-75
2023/09/29 12:14:53;;;;;;;4.82;1.23;;;17.60;99.90;;;;;;4955292;28;20124;-73
2023/09/29 12:17:22;;;;;;;6.60;1.30;;;17.80;99.90;;;;;;4947412;28;20040;-73
2023/09/29 12:20:26;;;;;;;7.18;1.40;;;18.30;99.90;;;;;;5016972;23;20038;-73
2023/09/29 12:23:00;;;;;;;5.78;1.33;;;17.40;99.90;;;;;;4977492;28;20065;-71
2023/09/29 12:25:26;;;;;;;5.18;1.25;;;17.90;99.90;;;;;;4977003;28;20043;-73
2023/09/29 12:27:52;;;;;;;3.38;1.20;;;18.00;99.90;;;;;;4976863;28;20117;-73
2023/09/29 12:30:18;;;;;;;5.38;1.15;;;17.90;99.90;;;;;;4976326;28;20104;-73
2023/09/29 12:32:45;;;;;;;6.88;1.27;;;17.90;99.90;;;;;;4976605;28;20049;-73
2023/09/29 12:35:12;;;;;;;6.63;1.30;;;17.90;99.90;;;;;;4977516;28;20046;-73
2023/09/29 12:37:39;;;;;;;6.40;1.50;;;18.10;99.90;;;;;;4976802;28;20061;-74
2023/09/29 12:40:13;;;;;;;6.63;1.35;;;18.20;99.90;;;;;;4978188;28;20137;-74
2023/09/29 12:42:46;;;;;;;3.63;1.20;;;18.60;99.90;;;;;;4978037;28;20050;-73